sensor_id;sensor_type;location;lat;lon;timestamp;pressure;altitude;pressure_sealevel;temperature;humidity
67434;BME280;54305;47.950;6.572;2022-08-18T00:01:16;94151.19;;;18.44;90.12
67434;BME280;54305;47.950;6.572;2022-08-18T00:03:44;94152.84;;;18.39;90.15
67434;BME280;54305;47.950;6.572;2022-08-18T00:06:09;94156.94;;;18.35;90.34
67434;BME280;54305;47.950;6.572;2022-08-18T00:08:35;94143.13;;;18.33;90.70
67434;BME280;54305;47.950;6.572;2022-08-18T00:11:00;94137.13;;;18.19;92.54
67434;BME280;54305;47.950;6.572;2022-08-18T00:13:26;94138.00;;;18.07;92.32
67434;BME280;54305;47.950;6.572;2022-08-18T00:15:51;94141.03;;;18.04;92.88
67434;BME280;54305;47.950;6.572;2022-08-18T00:18:16;94135.53;;;18.12;91.36
67434;BME280;54305;47.950;6.572;2022-08-18T00:20:42;94136.75;;;18.16;91.24
67434;BME280;54305;47.950;6.572;2022-08-18T00:23:07;94129.88;;;18.08;90.13
67434;BME280;54305;47.950;6.572;2022-08-18T00:25:33;94129.06;;;18.08;89.61
67434;BME280;54305;47.950;6.572;2022-08-18T00:27:58;94133.94;;;18.11;89.04
67434;BME280;54305;47.950;6.572;2022-08-18T00:30:24;94124.59;;;18.15;89.75
67434;BME280;54305;47.950;6.572;2022-08-18T00:32:50;94123.03;;;18.01;89.45
67434;BME280;54305;47.950;6.572;2022-08-18T00:35:18;94129.34;;;18.00;89.67
67434;BME280;54305;47.950;6.572;2022-08-18T00:37:45;94141.31;;;17.96;89.71
67434;BME280;54305;47.950;6.572;2022-08-18T00:40:12;94138.06;;;17.94;89.40
67434;BME280;54305;47.950;6.572;2022-08-18T00:42:50;94131.19;;;17.93;88.89
67434;BME280;54305;47.950;6.572;2022-08-18T00:45:21;94130.78;;;17.96;88.62
67434;BME280;54305;47.950;6.572;2022-08-18T00:47:47;94127.88;;;18.04;88.12
67434;BME280;54305;47.950;6.572;2022-08-18T00:50:18;94129.91;;;18.02;89.09
67434;BME280;54305;47.950;6.572;2022-08-18T00:52:46;94126.69;;;18.00;88.34
67434;BME280;54305;47.950;6.572;2022-08-18T00:55:14;94130.34;;;17.99;89.25
67434;BME280;54305;47.950;6.572;2022-08-18T00:57:42;94125.94;;;17.86;89.99
67434;BME280;54305;47.950;6.572;2022-08-18T01:00:08;94127.16;;;17.84;90.72
67434;BME280;54305;47.950;6.572;2022-08-18T01:02:38;94125.56;;;17.83;90.79
67434;BME280;54305;47.950;6.572;2022-08-18T01:05:14;94123.59;;;17.72;91.27
67434;BME280;54305;47.950;6.572;2022-08-18T01:07:41;94124.03;;;17.56;92.82
67434;BME280;54305;47.950;6.572;2022-08-18T01:10:11;94111.13;;;17.41;92.75
67434;BME280;54305;47.950;6.572;2022-08-18T01:12:40;94112.72;;;17.36;93.28
67434;BME280;54305;47.950;6.572;2022-08-18T01:15:06;94103.03;;;17.30;93.45
67434;BME280;54305;47.950;6.572;2022-08-18T01:17:31;94110.75;;;17.25;93.25
67434;BME280;54305;47.950;6.572;2022-08-18T01:20:17;94109.59;;;17.08;93.71
67434;BME280;54305;47.950;6.572;2022-08-18T01:23:11;94117.25;;;17.09;93.16
67434;BME280;54305;47.950;6.572;2022-08-18T01:25:37;94114.84;;;17.08;93.54
67434;BME280;54305;47.950;6.572;2022-08-18T01:28:22;94112.59;;;17.18;92.40
67434;BME280;54305;47.950;6.572;2022-08-18T01:30:51;94111.59;;;16.99;93.28
67434;BME280;54305;47.950;6.572;2022-08-18T01:33:20;94114.06;;;16.88;91.43
67434;BME280;54305;47.950;6.572;2022-08-18T01:35:46;94119.75;;;16.85;92.22
67434;BME280;54305;47.950;6.572;2022-08-18T01:38:16;94110.81;;;16.66;93.89
67434;BME280;54305;47.950;6.572;2022-08-18T01:40:42;94114.91;;;16.56;94.00
67434;BME280;54305;47.950;6.572;2022-08-18T01:43:07;94108.03;;;16.48;93.95
67434;BME280;54305;47.950;6.572;2022-08-18T01:45:33;94108.00;;;16.42;94.81
67434;BME280;54305;47.950;6.572;2022-08-18T01:47:58;94103.94;;;16.33;94.95
67434;BME280;54305;47.950;6.572;2022-08-18T01:50:24;94101.50;;;16.25;94.09
67434;BME280;54305;47.950;6.572;2022-08-18T01:52:50;94106.34;;;16.21;95.08
67434;BME280;54305;47.950;6.572;2022-08-18T01:55:17;94099.09;;;16.23;94.17
67434;BME280;54305;47.950;6.572;2022-08-18T01:57:42;94099.88;;;16.24;93.08
67434;BME280;54305;47.950;6.572;2022-08-18T02:00:10;94097.47;;;16.29;92.69
67434;BME280;54305;47.950;6.572;2022-08-18T02:02:35;94093.81;;;16.30;92.30
67434;BME280;54305;47.950;6.572;2022-08-18T02:05:06;94082.09;;;16.32;91.88
67434;BME280;54305;47.950;6.572;2022-08-18T02:07:32;94087.75;;;16.29;91.71
67434;BME280;54305;47.950;6.572;2022-08-18T02:09:59;94081.69;;;16.29;91.62
67434;BME280;54305;47.950;6.572;2022-08-18T02:12:24;94090.19;;;16.24;91.37
67434;BME280;54305;47.950;6.572;2022-08-18T02:14:49;94093.00;;;16.23;91.39
67434;BME280;54305;47.950;6.572;2022-08-18T02:17:17;94087.75;;;16.23;91.00
67434;BME280;54305;47.950;6.572;2022-08-18T02:19:43;94091.41;;;16.22;90.77
67434;BME280;54305;47.950;6.572;2022-08-18T02:22:09;94090.19;;;16.18;90.66
67434;BME280;54305;47.950;6.572;2022-08-18T02:24:35;94092.59;;;16.19;90.84
67434;BME280;54305;47.950;6.572;2022-08-18T02:27:01;94089.34;;;16.11;90.75
67434;BME280;54305;47.950;6.572;2022-08-18T02:29:26;94091.31;;;15.89;91.74
67434;BME280;54305;47.950;6.572;2022-08-18T02:31:51;94096.16;;;15.86;91.10
67434;BME280;54305;47.950;6.572;2022-08-18T02:34:17;94094.94;;;15.82;91.67
67434;BME280;54305;47.950;6.572;2022-08-18T02:36:42;94091.75;;;15.93;91.58
67434;BME280;54305;47.950;6.572;2022-08-18T02:39:08;94083.28;;;15.97;91.46
67434;BME280;54305;47.950;6.572;2022-08-18T02:41:33;94074.78;;;15.95;91.20
67434;BME280;54305;47.950;6.572;2022-08-18T02:43:58;94078.63;;;15.93;91.34
67434;BME280;54305;47.950;6.572;2022-08-18T02:46:24;94080.03;;;15.89;91.58
67434;BME280;54305;47.950;6.572;2022-08-18T02:48:49;94070.75;;;15.93;91.89
67434;BME280;54305;47.950;6.572;2022-08-18T02:51:16;94065.06;;;15.96;91.56
67434;BME280;54305;47.950;6.572;2022-08-18T02:53:43;94065.88;;;15.90;93.32
67434;BME280;54305;47.950;6.572;2022-08-18T02:56:13;94065.06;;;15.96;92.44
67434;BME280;54305;47.950;6.572;2022-08-18T02:58:42;94061.03;;;16.00;92.31
67434;BME280;54305;47.950;6.572;2022-08-18T03:01:07;94056.81;;;15.99;92.81
67434;BME280;54305;47.950;6.572;2022-08-18T03:03:32;94055.38;;;15.90;94.31
67434;BME280;54305;47.950;6.572;2022-08-18T03:05:57;94049.75;;;15.93;93.30
67434;BME280;54305;47.950;6.572;2022-08-18T03:08:23;94054.97;;;16.06;93.11
67434;BME280;54305;47.950;6.572;2022-08-18T03:10:50;94042.06;;;16.17;91.60
67434;BME280;54305;47.950;6.572;2022-08-18T03:13:15;94040.84;;;16.13;91.18
67434;BME280;54305;47.950;6.572;2022-08-18T03:15:41;94035.59;;;16.07;91.93
67434;BME280;54305;47.950;6.572;2022-08-18T03:18:06;94039.25;;;15.99;91.87
67434;BME280;54305;47.950;6.572;2022-08-18T03:20:31;94034.56;;;15.95;92.29
67434;BME280;54305;47.950;6.572;2022-08-18T03:22:58;94033.97;;;15.93;92.14
67434;BME280;54305;47.950;6.572;2022-08-18T03:25:23;94028.31;;;15.96;91.68
67434;BME280;54305;47.950;6.572;2022-08-18T03:27:49;94024.91;;;16.02;91.35
67434;BME280;54305;47.950;6.572;2022-08-18T03:30:14;94028.31;;;16.09;91.35
67434;BME280;54305;47.950;6.572;2022-08-18T03:32:39;94027.53;;;16.02;91.52
67434;BME280;54305;47.950;6.572;2022-08-18T03:35:04;94029.53;;;16.00;91.29
67434;BME280;54305;47.950;6.572;2022-08-18T03:37:30;94036.81;;;15.91;92.63
67434;BME280;54305;47.950;6.572;2022-08-18T03:39:56;94037.56;;;15.72;94.33
67434;BME280;54305;47.950;6.572;2022-08-18T03:42:21;94032.09;;;15.61;95.31
67434;BME280;54305;47.950;6.572;2022-08-18T03:44:46;94031.53;;;15.65;94.05
67434;BME280;54305;47.950;6.572;2022-08-18T03:47:11;94032.28;;;15.59;94.31
67434;BME280;54305;47.950;6.572;2022-08-18T03:49:37;94034.72;;;15.61;94.09
67434;BME280;54305;47.950;6.572;2022-08-18T03:52:02;94039.16;;;15.67;93.79
67434;BME280;54305;47.950;6.572;2022-08-18T03:54:29;94035.97;;;15.71;93.65
67434;BME280;54305;47.950;6.572;2022-08-18T03:56:56;94037.16;;;15.69;93.23
67434;BME280;54305;47.950;6.572;2022-08-18T03:59:22;94043.00;;;15.51;95.65
67434;BME280;54305;47.950;6.572;2022-08-18T04:01:49;94041.94;;;15.46;94.96
67434;BME280;54305;47.950;6.572;2022-08-18T04:04:16;94046.03;;;15.55;94.50
67434;BME280;54305;47.950;6.572;2022-08-18T04:06:45;94044.81;;;15.57;95.34
67434;BME280;54305;47.950;6.572;2022-08-18T04:09:14;94052.09;;;15.62;97.64
67434;BME280;54305;47.950;6.572;2022-08-18T04:11:41;94060.53;;;15.51;99.50
67434;BME280;54305;47.950;6.572;2022-08-18T04:14:10;94059.09;;;15.42;99.00
67434;BME280;54305;47.950;6.572;2022-08-18T04:16:36;94067.63;;;15.57;97.11
67434;BME280;54305;47.950;6.572;2022-08-18T04:19:02;94074.09;;;15.61;96.15
67434;BME280;54305;47.950;6.572;2022-08-18T04:21:28;94072.47;;;15.60;96.14
67434;BME280;54305;47.950;6.572;2022-08-18T04:23:55;94075.09;;;15.60;96.19
67434;BME280;54305;47.950;6.572;2022-08-18T04:26:21;94075.31;;;15.65;95.86
67434;BME280;54305;47.950;6.572;2022-08-18T04:28:46;94075.94;;;15.73;96.13
67434;BME280;54305;47.950;6.572;2022-08-18T04:31:12;94075.94;;;15.73;95.48
67434;BME280;54305;47.950;6.572;2022-08-18T04:33:38;94080.84;;;15.83;95.76
67434;BME280;54305;47.950;6.572;2022-08-18T04:36:08;94087.69;;;15.84;95.26
67434;BME280;54305;47.950;6.572;2022-08-18T04:38:34;94090.13;;;15.92;96.43
67434;BME280;54305;47.950;6.572;2022-08-18T04:40:59;94086.91;;;15.90;97.38
67434;BME280;54305;47.950;6.572;2022-08-18T04:43:24;94092.16;;;15.90;98.49
67434;BME280;54305;47.950;6.572;2022-08-18T04:45:49;94094.59;;;15.98;98.43
67434;BME280;54305;47.950;6.572;2022-08-18T04:48:15;94095.38;;;15.92;98.51
67434;BME280;54305;47.950;6.572;2022-08-18T04:50:41;94101.84;;;15.83;99.16
67434;BME280;54305;47.950;6.572;2022-08-18T04:53:06;94096.97;;;15.80;100.00
67434;BME280;54305;47.950;6.572;2022-08-18T04:55:51;94102.22;;;15.80;99.46
67434;BME280;54305;47.950;6.572;2022-08-18T04:58:17;94102.06;;;15.88;99.72
67434;BME280;54305;47.950;6.572;2022-08-18T05:00:43;94097.41;;;15.90;99.47
67434;BME280;54305;47.950;6.572;2022-08-18T05:03:09;94097.81;;;16.00;99.14
67434;BME280;54305;47.950;6.572;2022-08-18T05:05:34;94091.34;;;15.96;99.64
67434;BME280;54305;47.950;6.572;2022-08-18T05:08:00;94100.63;;;15.92;99.79
67434;BME280;54305;47.950;6.572;2022-08-18T05:10:25;94106.28;;;15.89;99.42
67434;BME280;54305;47.950;6.572;2022-08-18T05:12:50;94111.13;;;15.92;99.11
67434;BME280;54305;47.950;6.572;2022-08-18T05:15:15;94116.78;;;15.89;98.38
67434;BME280;54305;47.950;6.572;2022-08-18T05:17:43;94118.00;;;15.86;98.60
67434;BME280;54305;47.950;6.572;2022-08-18T05:20:08;94120.84;;;15.91;97.14
67434;BME280;54305;47.950;6.572;2022-08-18T05:22:37;94121.25;;;15.95;96.21
67434;BME280;54305;47.950;6.572;2022-08-18T05:25:03;94120.88;;;15.98;96.60
67434;BME280;54305;47.950;6.572;2022-08-18T05:27:32;94118.44;;;16.03;96.20
67434;BME280;54305;47.950;6.572;2022-08-18T05:29:59;94123.69;;;15.96;97.02
67434;BME280;54305;47.950;6.572;2022-08-18T05:32:24;94126.94;;;16.05;93.86
67434;BME280;54305;47.950;6.572;2022-08-18T05:34:49;94122.88;;;16.02;93.64
67434;BME280;54305;47.950;6.572;2022-08-18T05:40:21;94102.69;;;16.03;95.07
67434;BME280;54305;47.950;6.572;2022-08-18T05:42:48;94095.81;;;16.08;96.14
67434;BME280;54305;47.950;6.572;2022-08-18T05:45:16;94093.41;;;16.20;95.98
67434;BME280;54305;47.950;6.572;2022-08-18T05:47:41;94080.06;;;16.28;94.63
67434;BME280;54305;47.950;6.572;2022-08-18T05:50:15;94073.63;;;16.37;94.80
67434;BME280;54305;47.950;6.572;2022-08-18T05:55:16;94066.75;;;16.36;96.22
67434;BME280;54305;47.950;6.572;2022-08-18T05:58:16;94070.41;;;16.48;94.77
67434;BME280;54305;47.950;6.572;2022-08-18T06:00:44;94067.19;;;16.46;93.98
67434;BME280;54305;47.950;6.572;2022-08-18T06:03:15;94083.34;;;16.43;94.60
67434;BME280;54305;47.950;6.572;2022-08-18T06:05:58;94090.22;;;16.44;94.56
67434;BME280;54305;47.950;6.572;2022-08-18T06:08:41;94091.63;;;16.46;95.30
67434;BME280;54305;47.950;6.572;2022-08-18T06:11:07;94080.09;;;16.54;95.26
67434;BME280;54305;47.950;6.572;2022-08-18T06:13:37;94078.88;;;16.69;94.47
67434;BME280;54305;47.950;6.572;2022-08-18T06:16:07;94078.06;;;16.82;94.02
67434;BME280;54305;47.950;6.572;2022-08-18T06:23:41;94073.78;;;16.94;93.79
67434;BME280;54305;47.950;6.572;2022-08-18T06:28:47;94079.84;;;17.01;91.82
67434;BME280;54305;47.950;6.572;2022-08-18T06:31:26;94093.81;;;17.08;91.83
67434;BME280;54305;47.950;6.572;2022-08-18T06:34:04;94087.72;;;17.14;92.11
67434;BME280;54305;47.950;6.572;2022-08-18T06:43:59;94064.94;;;17.52;89.87
67434;BME280;54305;47.950;6.572;2022-08-18T06:47:09;94054.75;;;17.62;90.60
67434;BME280;54305;47.950;6.572;2022-08-18T06:54:44;94080.66;;;18.02;84.45
67434;BME280;54305;47.950;6.572;2022-08-18T06:57:19;94077.97;;;18.09;86.08
67434;BME280;54305;47.950;6.572;2022-08-18T06:59:49;94078.56;;;18.11;86.63
67434;BME280;54305;47.950;6.572;2022-08-18T07:02:22;94076.97;;;18.10;88.09
67434;BME280;54305;47.950;6.572;2022-08-18T07:09:55;94059.34;;;18.04;89.30
67434;BME280;54305;47.950;6.572;2022-08-18T07:12:22;94064.63;;;18.04;90.09
67434;BME280;54305;47.950;6.572;2022-08-18T07:14:52;94069.56;;;17.94;86.77
67434;BME280;54305;47.950;6.572;2022-08-18T07:17:20;94084.97;;;17.90;86.66
67434;BME280;54305;47.950;6.572;2022-08-18T07:19:55;94083.34;;;17.96;85.78
67434;BME280;54305;47.950;6.572;2022-08-18T07:22:20;94086.16;;;18.01;85.49
67434;BME280;54305;47.950;6.572;2022-08-18T07:24:47;94091.16;;;18.09;85.24
67434;BME280;54305;47.950;6.572;2022-08-18T07:27:17;94095.16;;;18.18;84.58
67434;BME280;54305;47.950;6.572;2022-08-18T07:32:25;94111.66;;;18.07;85.51
67434;BME280;54305;47.950;6.572;2022-08-18T07:34:52;94138.41;;;18.04;86.67
67434;BME280;54305;47.950;6.572;2022-08-18T07:42:32;94158.09;;;17.38;88.76
67434;BME280;54305;47.950;6.572;2022-08-18T07:45:03;94148.81;;;17.42;88.68
67434;BME280;54305;47.950;6.572;2022-08-18T07:50:01;94149.13;;;17.65;89.34
67434;BME280;54305;47.950;6.572;2022-08-18T07:53:10;94153.16;;;17.67;88.89
67434;BME280;54305;47.950;6.572;2022-08-18T07:55:20;94147.50;;;17.64;88.90
67434;BME280;54305;47.950;6.572;2022-08-18T08:00:19;94152.19;;;17.68;89.19
67434;BME280;54305;47.950;6.572;2022-08-18T08:05:39;94154.00;;;17.68;89.46
67434;BME280;54305;47.950;6.572;2022-08-18T08:16:07;94151.41;;;17.99;88.89
67434;BME280;54305;47.950;6.572;2022-08-18T08:18:45;94149.03;;;17.91;89.81
67434;BME280;54305;47.950;6.572;2022-08-18T08:21:14;94142.97;;;17.84;90.46
67434;BME280;54305;47.950;6.572;2022-08-18T08:31:30;94118.78;;;18.31;89.91
67434;BME280;54305;47.950;6.572;2022-08-18T08:34:18;94115.56;;;18.29;89.68
67434;BME280;54305;47.950;6.572;2022-08-18T08:36:46;94118.06;;;18.55;88.93
67434;BME280;54305;47.950;6.572;2022-08-18T08:39:13;94121.91;;;18.77;87.62
67434;BME280;54305;47.950;6.572;2022-08-18T08:44:20;94103.13;;;18.91;86.28
67434;BME280;54305;47.950;6.572;2022-08-18T08:49:32;94087.09;;;18.93;86.56
67434;BME280;54305;47.950;6.572;2022-08-18T08:52:03;94077.78;;;18.90;86.76
67434;BME280;54305;47.950;6.572;2022-08-18T08:54:36;94069.06;;;19.08;85.23
67434;BME280;54305;47.950;6.572;2022-08-18T08:57:04;94062.66;;;19.22;84.82
67434;BME280;54305;47.950;6.572;2022-08-18T08:59:29;94060.72;;;19.29;85.04
67434;BME280;54305;47.950;6.572;2022-08-18T09:04:46;94055.25;;;19.78;83.55
67434;BME280;54305;47.950;6.572;2022-08-18T09:07:31;94065.25;;;19.76;81.99
67434;BME280;54305;47.950;6.572;2022-08-18T09:23:11;94087.00;;;19.42;83.95
67434;BME280;54305;47.950;6.572;2022-08-18T09:30:42;94110.41;;;19.14;83.69
67434;BME280;54305;47.950;6.572;2022-08-18T09:38:07;94131.34;;;18.91;84.99
67434;BME280;54305;47.950;6.572;2022-08-18T09:40:55;94135.31;;;19.00;83.99
67434;BME280;54305;47.950;6.572;2022-08-18T09:49:51;94105.91;;;19.39;81.78
67434;BME280;54305;47.950;6.572;2022-08-18T09:51:57;94104.47;;;19.43;82.17
67434;BME280;54305;47.950;6.572;2022-08-18T09:54:24;94097.78;;;19.58;82.16
67434;BME280;54305;47.950;6.572;2022-08-18T10:01:59;94085.22;;;19.72;81.95
67434;BME280;54305;47.950;6.572;2022-08-18T10:06:50;94087.41;;;19.75;84.53
67434;BME280;54305;47.950;6.572;2022-08-18T10:17:06;94055.63;;;20.11;83.26
67434;BME280;54305;47.950;6.572;2022-08-18T10:22:35;94049.09;;;21.01;80.95
67434;BME280;54305;47.950;6.572;2022-08-18T10:25:00;94050.38;;;20.98;80.98
67434;BME280;54305;47.950;6.572;2022-08-18T10:32:54;94066.38;;;20.80;77.96
67434;BME280;54305;47.950;6.572;2022-08-18T10:35:52;94064.09;;;20.95;79.51
67434;BME280;54305;47.950;6.572;2022-08-18T10:38:24;94053.72;;;21.17;76.79
67434;BME280;54305;47.950;6.572;2022-08-18T10:40:55;94061.81;;;21.50;77.87
67434;BME280;54305;47.950;6.572;2022-08-18T10:43:27;94048.47;;;21.45;77.04
67434;BME280;54305;47.950;6.572;2022-08-18T10:45:54;94048.63;;;21.27;79.05
67434;BME280;54305;47.950;6.572;2022-08-18T10:48:22;94043.69;;;21.30;78.74
67434;BME280;54305;47.950;6.572;2022-08-18T10:50:49;94044.00;;;21.45;77.23
67434;BME280;54305;47.950;6.572;2022-08-18T10:56:00;94045.97;;;21.89;76.26
67434;BME280;54305;47.950;6.572;2022-08-18T11:06:15;94036.13;;;22.62;70.48
67434;BME280;54305;47.950;6.572;2022-08-18T11:08:42;94029.81;;;22.35;70.17
67434;BME280;54305;47.950;6.572;2022-08-18T11:11:09;94038.13;;;22.11;71.65
67434;BME280;54305;47.950;6.572;2022-08-18T11:18:41;94023.25;;;21.42;73.44
67434;BME280;54305;47.950;6.572;2022-08-18T11:26:43;94015.50;;;21.01;75.31
67434;BME280;54305;47.950;6.572;2022-08-18T11:31:42;94008.13;;;21.03;75.53
67434;BME280;54305;47.950;6.572;2022-08-18T11:34:14;94010.66;;;20.98;75.78
67434;BME280;54305;47.950;6.572;2022-08-18T11:36:41;94002.69;;;21.21;75.65
67434;BME280;54305;47.950;6.572;2022-08-18T11:39:10;94003.16;;;21.18;76.65
67434;BME280;54305;47.950;6.572;2022-08-18T11:41:36;94006.97;;;20.99;74.94
67434;BME280;54305;47.950;6.572;2022-08-18T11:44:02;94009.31;;;21.47;74.60
67434;BME280;54305;47.950;6.572;2022-08-18T11:46:30;94006.50;;;21.65;75.55
67434;BME280;54305;47.950;6.572;2022-08-18T11:48:57;94005.09;;;21.62;72.25
67434;BME280;54305;47.950;6.572;2022-08-18T12:03:53;94016.91;;;22.11;72.04
67434;BME280;54305;47.950;6.572;2022-08-18T12:06:25;94021.50;;;21.59;74.56
67434;BME280;54305;47.950;6.572;2022-08-18T12:08:53;94033.53;;;21.16;75.95
67434;BME280;54305;47.950;6.572;2022-08-18T12:11:20;94023.53;;;20.60;77.08
67434;BME280;54305;47.950;6.572;2022-08-18T12:13:47;94028.34;;;20.40;78.88
67434;BME280;54305;47.950;6.572;2022-08-18T12:18:55;94038.31;;;20.27;81.56
67434;BME280;54305;47.950;6.572;2022-08-18T12:21:20;94042.25;;;20.06;82.68
67434;BME280;54305;47.950;6.572;2022-08-18T12:23:45;94028.81;;;19.78;83.49
67434;BME280;54305;47.950;6.572;2022-08-18T12:26:12;94036.22;;;19.87;84.54
67434;BME280;54305;47.950;6.572;2022-08-18T12:28:37;94035.22;;;20.00;83.66
67434;BME280;54305;47.950;6.572;2022-08-18T12:31:03;94034.28;;;19.94;82.12
67434;BME280;54305;47.950;6.572;2022-08-18T12:33:29;94025.31;;;19.84;83.77
67434;BME280;54305;47.950;6.572;2022-08-18T12:35:55;94027.47;;;19.87;82.60
67434;BME280;54305;47.950;6.572;2022-08-18T12:38:20;94031.47;;;19.78;83.35
67434;BME280;54305;47.950;6.572;2022-08-18T12:40:47;94022.41;;;19.74;83.45
67434;BME280;54305;47.950;6.572;2022-08-18T12:43:12;94032.31;;;19.90;83.45
67434;BME280;54305;47.950;6.572;2022-08-18T12:45:38;94020.84;;;19.96;81.62
67434;BME280;54305;47.950;6.572;2022-08-18T12:48:03;94025.59;;;19.76;82.80
67434;BME280;54305;47.950;6.572;2022-08-18T12:50:29;94022.13;;;19.64;82.72
67434;BME280;54305;47.950;6.572;2022-08-18T12:52:54;94032.69;;;19.64;82.98
67434;BME280;54305;47.950;6.572;2022-08-18T12:55:19;94026.03;;;19.73;82.80
67434;BME280;54305;47.950;6.572;2022-08-18T12:57:44;94022.66;;;19.84;82.24
67434;BME280;54305;47.950;6.572;2022-08-18T13:00:10;94027.16;;;19.95;82.75
67434;BME280;54305;47.950;6.572;2022-08-18T13:02:36;94016.72;;;20.00;82.89
67434;BME280;54305;47.950;6.572;2022-08-18T13:05:01;94022.31;;;19.92;82.53
67434;BME280;54305;47.950;6.572;2022-08-18T13:07:26;94018.81;;;19.98;84.52
67434;BME280;54305;47.950;6.572;2022-08-18T13:09:52;94013.81;;;20.08;83.95
67434;BME280;54305;47.950;6.572;2022-08-18T13:12:17;94012.13;;;20.07;84.73
67434;BME280;54305;47.950;6.572;2022-08-18T13:14:43;94016.09;;;20.16;84.69
67434;BME280;54305;47.950;6.572;2022-08-18T13:17:10;94013.81;;;20.19;84.27
67434;BME280;54305;47.950;6.572;2022-08-18T13:19:35;94019.50;;;20.05;84.25
67434;BME280;54305;47.950;6.572;2022-08-18T13:22:00;94017.16;;;19.97;85.08
67434;BME280;54305;47.950;6.572;2022-08-18T13:24:26;94017.84;;;20.11;85.13
67434;BME280;54305;47.950;6.572;2022-08-18T13:26:51;94021.31;;;19.93;86.34
67434;BME280;54305;47.950;6.572;2022-08-18T13:29:16;94026.31;;;19.83;86.50
67434;BME280;54305;47.950;6.572;2022-08-18T13:31:43;94014.47;;;19.74;86.15
67434;BME280;54305;47.950;6.572;2022-08-18T13:34:10;94021.78;;;19.72;87.78
67434;BME280;54305;47.950;6.572;2022-08-18T13:36:36;94017.09;;;19.74;86.35
67434;BME280;54305;47.950;6.572;2022-08-18T13:39:12;94015.22;;;19.63;89.55
67434;BME280;54305;47.950;6.572;2022-08-18T13:41:37;94014.78;;;19.66;89.03
67434;BME280;54305;47.950;6.572;2022-08-18T13:44:05;94012.00;;;19.61;88.50
67434;BME280;54305;47.950;6.572;2022-08-18T13:46:31;94012.41;;;19.76;87.90
67434;BME280;54305;47.950;6.572;2022-08-18T13:48:56;94007.81;;;19.83;88.95
67434;BME280;54305;47.950;6.572;2022-08-18T13:51:26;94006.72;;;20.02;88.27
67434;BME280;54305;47.950;6.572;2022-08-18T13:53:52;94003.25;;;19.90;86.43
67434;BME280;54305;47.950;6.572;2022-08-18T13:56:17;94008.22;;;19.98;86.09
67434;BME280;54305;47.950;6.572;2022-08-18T13:58:43;94009.06;;;19.51;87.77
67434;BME280;54305;47.950;6.572;2022-08-18T14:01:09;94019.44;;;19.52;88.26
67434;BME280;54305;47.950;6.572;2022-08-18T14:03:35;94021.75;;;19.90;88.38
67434;BME280;54305;47.950;6.572;2022-08-18T14:06:01;94017.88;;;20.04;86.66
67434;BME280;54305;47.950;6.572;2022-08-18T14:08:27;94023.47;;;20.14;87.00
67434;BME280;54305;47.950;6.572;2022-08-18T14:10:54;94025.97;;;20.09;87.89
67434;BME280;54305;47.950;6.572;2022-08-18T14:13:20;94028.75;;;20.14;86.89
67434;BME280;54305;47.950;6.572;2022-08-18T14:15:46;94024.16;;;20.21;85.51
67434;BME280;54305;47.950;6.572;2022-08-18T14:18:11;94025.06;;;20.15;84.89
67434;BME280;54305;47.950;6.572;2022-08-18T14:20:37;94026.09;;;20.14;86.24
67434;BME280;54305;47.950;6.572;2022-08-18T14:23:21;94022.72;;;20.07;85.25
67434;BME280;54305;47.950;6.572;2022-08-18T14:26:05;94031.97;;;20.16;84.78
67434;BME280;54305;47.950;6.572;2022-08-18T14:28:49;94024.22;;;20.03;85.20
67434;BME280;54305;47.950;6.572;2022-08-18T14:31:14;94034.38;;;19.88;85.94
67434;BME280;54305;47.950;6.572;2022-08-18T14:33:40;94038.13;;;19.80;86.45
67434;BME280;54305;47.950;6.572;2022-08-18T14:36:05;94041.72;;;19.86;86.55
67434;BME280;54305;47.950;6.572;2022-08-18T14:38:31;94037.91;;;19.82;86.73
67434;BME280;54305;47.950;6.572;2022-08-18T14:40:57;94032.97;;;19.74;89.13
67434;BME280;54305;47.950;6.572;2022-08-18T14:43:24;94031.16;;;19.86;88.11
67434;BME280;54305;47.950;6.572;2022-08-18T14:45:49;94028.00;;;20.07;86.67
67434;BME280;54305;47.950;6.572;2022-08-18T14:48:16;94036.47;;;20.16;86.09
67434;BME280;54305;47.950;6.572;2022-08-18T14:50:42;94031.97;;;20.16;84.58
67434;BME280;54305;47.950;6.572;2022-08-18T14:53:09;94039.31;;;19.84;86.81
67434;BME280;54305;47.950;6.572;2022-08-18T14:55:37;94036.25;;;19.99;87.14
67434;BME280;54305;47.950;6.572;2022-08-18T14:58:03;94042.16;;;19.83;86.23
67434;BME280;54305;47.950;6.572;2022-08-18T15:00:29;94040.03;;;19.91;86.71
67434;BME280;54305;47.950;6.572;2022-08-18T15:02:54;94040.38;;;19.95;86.35
67434;BME280;54305;47.950;6.572;2022-08-18T15:05:21;94040.50;;;20.00;86.53
67434;BME280;54305;47.950;6.572;2022-08-18T15:07:47;94042.72;;;20.03;86.95
67434;BME280;54305;47.950;6.572;2022-08-18T15:10:12;94049.16;;;20.07;86.96
67434;BME280;54305;47.950;6.572;2022-08-18T15:12:38;94049.63;;;20.04;86.21
67434;BME280;54305;47.950;6.572;2022-08-18T15:15:04;94051.78;;;19.95;85.32
67434;BME280;54305;47.950;6.572;2022-08-18T15:17:30;94048.06;;;19.85;85.80
67434;BME280;54305;47.950;6.572;2022-08-18T15:19:56;94054.00;;;19.80;87.09
67434;BME280;54305;47.950;6.572;2022-08-18T15:22:21;94048.16;;;19.60;86.15
67434;BME280;54305;47.950;6.572;2022-08-18T15:25:05;94048.84;;;19.56;87.87
67434;BME280;54305;47.950;6.572;2022-08-18T15:27:49;94055.31;;;19.42;87.58
67434;BME280;54305;47.950;6.572;2022-08-18T15:30:15;94049.44;;;19.40;88.52
67434;BME280;54305;47.950;6.572;2022-08-18T15:32:43;94056.41;;;19.52;88.82
67434;BME280;54305;47.950;6.572;2022-08-18T15:35:09;94052.47;;;19.73;87.57
67434;BME280;54305;47.950;6.572;2022-08-18T15:37:35;94055.97;;;19.85;86.97
67434;BME280;54305;47.950;6.572;2022-08-18T15:40:08;94053.91;;;19.87;87.44
67434;BME280;54305;47.950;6.572;2022-08-18T15:42:45;94046.31;;;20.08;86.46
67434;BME280;54305;47.950;6.572;2022-08-18T15:45:19;94055.69;;;20.04;85.17
67434;BME280;54305;47.950;6.572;2022-08-18T15:47:44;94049.00;;;20.02;85.47